PWSweather.com
Personal Weather Stations
Station Observations
NIGHT1
EastleighGB

EastleighGB

Lat: 50.966307, Lon: -1.380982

Elevation: 78

Station Type: Davis VP2 with daytime FARS

Latest ConditionsUpdated 5:15:00 AM GMT Monday, May 25, 2015
Currently Today's Max Today's Min Today's Average
Temperature 48.7°F9.3°C 55.3°F12.9°C 46.7°F8.2°C 50.8°F10.4°C
Dew Point 44.1°F6.7°C 51.8°F11.0°C 42.9°F6.1°C 45.8°F7.7°C
Winds 2.0 mph WNW3.2 kmh WNW 3.0 mph WNW4.8 kmh WNW - 1.8 mph 2.9 kmh
Wind Gusts 4.0 mph6.4 kmh 10.0 mph16.1 kmh - -
Humidity 84% 88% 79% 83%
Pressure 30.09 in1019.0 mb 30.10 in1019.3 mb 30.07 in1018.3 mb -
Hour Temp Dew Point Humidity Winds Wind Gusts Pressure Precip Precip Rate Daily Precip Total
05:15 AM 48.7°F9.3°C 44.1°F6.7°C 84% 2.0 mph WNW3.2 kmh WNW 4.0 mph6.4 kmh 30.09 in1019.0 mb 0.00 in0.0 mm 0.00 in0.0 mm 0.00 in0.0 mm
05:10 AM 48.7°F9.3°C 44.1°F6.7°C 84% 2.0 mph NW3.2 kmh NW 4.0 mph6.4 kmh 30.10 in1019.3 mb 0.00 in0.0 mm 0.00 in0.0 mm 0.00 in0.0 mm
05:05 AM 48.5°F9.2°C 43.9°F6.6°C 84% 2.0 mph NW3.2 kmh NW 4.0 mph6.4 kmh 30.10 in1019.3 mb 0.00 in0.0 mm 0.00 in0.0 mm 0.00 in0.0 mm
05:00 AM 48.4°F9.1°C 43.8°F6.6°C 84% 2.0 mph NW3.2 kmh NW 3.0 mph4.8 kmh 30.09 in1019.0 mb 0.00 in0.0 mm 0.00 in0.0 mm 0.00 in0.0 mm
04:55 AM 48.4°F9.1°C 43.8°F6.6°C 84% 2.0 mph NW3.2 kmh NW 4.0 mph6.4 kmh 30.09 in1019.0 mb 0.00 in0.0 mm 0.00 in0.0 mm 0.00 in0.0 mm
04:50 AM 48.4°F9.1°C 43.8°F6.6°C 84% 2.0 mph NW3.2 kmh NW 4.0 mph6.4 kmh 30.09 in1019.0 mb 0.00 in0.0 mm 0.00 in0.0 mm 0.00 in0.0 mm
04:45 AM 48.5°F9.2°C 43.9°F6.6°C 84% 1.9 mph WNW3.1 kmh WNW 4.0 mph6.4 kmh 30.09 in1019.0 mb 0.00 in0.0 mm 0.00 in0.0 mm 0.00 in0.0 mm
04:40 AM 48.6°F9.2°C 44.0°F6.7°C 84% 1.6 mph WNW2.6 kmh WNW 4.0 mph6.4 kmh 30.09 in1019.0 mb 0.00 in0.0 mm 0.00 in0.0 mm 0.00 in0.0 mm
04:35 AM 48.4°F9.1°C 43.8°F6.6°C 84% 1.2 mph NW1.9 kmh NW 3.0 mph4.8 kmh 30.09 in1019.0 mb 0.00 in0.0 mm 0.00 in0.0 mm 0.00 in0.0 mm
04:30 AM 48.4°F9.1°C 44.1°F6.7°C 85% 0.6 mph NW1.0 kmh NW 3.0 mph4.8 kmh 30.09 in1019.0 mb 0.00 in0.0 mm 0.00 in0.0 mm 0.00 in0.0 mm
04:25 AM 48.2°F9.0°C 43.9°F6.6°C 85% 0.1 mph NW0.2 kmh NW 3.0 mph4.8 kmh 30.09 in1019.0 mb 0.00 in0.0 mm 0.00 in0.0 mm 0.00 in0.0 mm
04:20 AM 47.7°F8.7°C 43.7°F6.5°C 86% Calm Calm 2.0 mph3.2 kmh 30.09 in1019.0 mb 0.00 in0.0 mm 0.00 in0.0 mm 0.00 in0.0 mm
04:15 AM 47.2°F8.4°C 43.5°F6.4°C 87% 0.2 mph 0.3 kmh 2.0 mph3.2 kmh 30.08 in1018.6 mb 0.00 in0.0 mm 0.00 in0.0 mm 0.00 in0.0 mm
04:10 AM 46.7°F8.2°C 43.3°F6.3°C 88% 0.4 mph 0.6 kmh 2.0 mph3.2 kmh 30.08 in1018.6 mb 0.00 in0.0 mm 0.00 in0.0 mm 0.00 in0.0 mm
04:05 AM 46.8°F8.2°C 43.1°F6.2°C 87% 0.8 mph N1.3 kmh N 2.0 mph3.2 kmh 30.08 in1018.6 mb 0.00 in0.0 mm 0.00 in0.0 mm 0.00 in0.0 mm
04:00 AM 46.9°F8.3°C 42.9°F6.1°C 86% 1.8 mph N2.9 kmh N 3.0 mph4.8 kmh 30.08 in1018.6 mb 0.00 in0.0 mm 0.00 in0.0 mm 0.00 in0.0 mm
03:55 AM 47.6°F8.7°C 43.3°F6.3°C 85% 2.8 mph NW4.5 kmh NW 4.0 mph6.4 kmh 30.09 in1019.0 mb 0.00 in0.0 mm 0.00 in0.0 mm 0.00 in0.0 mm
03:50 AM 48.0°F8.9°C 43.4°F6.3°C 84% 3.0 mph WNW4.8 kmh WNW 8.0 mph12.9 kmh 30.09 in1019.0 mb 0.00 in0.0 mm 0.00 in0.0 mm 0.00 in0.0 mm
03:45 AM 48.4°F9.1°C 43.5°F6.4°C 83% 3.0 mph WNW4.8 kmh WNW 8.0 mph12.9 kmh 30.10 in1019.3 mb 0.00 in0.0 mm 0.00 in0.0 mm 0.00 in0.0 mm
03:40 AM 48.7°F9.3°C 43.8°F6.6°C 83% 2.9 mph NW4.7 kmh NW 7.0 mph11.3 kmh 30.10 in1019.3 mb 0.00 in0.0 mm 0.00 in0.0 mm 0.00 in0.0 mm
03:35 AM 48.9°F9.4°C 44.0°F6.7°C 83% 2.4 mph NW3.9 kmh NW 7.0 mph11.3 kmh 30.09 in1019.0 mb 0.00 in0.0 mm 0.00 in0.0 mm 0.00 in0.0 mm
03:30 AM 48.9°F9.4°C 44.0°F6.7°C 83% 1.8 mph NW2.9 kmh NW 5.0 mph8.0 kmh 30.09 in1019.0 mb 0.00 in0.0 mm 0.00 in0.0 mm 0.00 in0.0 mm
03:25 AM 49.0°F9.4°C 44.1°F6.7°C 83% 1.3 mph NW2.1 kmh NW 5.0 mph8.0 kmh 30.09 in1019.0 mb 0.00 in0.0 mm 0.00 in0.0 mm 0.00 in0.0 mm
03:20 AM 49.0°F9.4°C 44.1°F6.7°C 83% 1.0 mph NW1.6 kmh NW 4.0 mph6.4 kmh 30.08 in1018.6 mb 0.00 in0.0 mm 0.00 in0.0 mm 0.00 in0.0 mm
03:15 AM 48.8°F9.3°C 43.9°F6.6°C 83% 1.0 mph NW1.6 kmh NW 3.0 mph4.8 kmh 30.08 in1018.6 mb 0.00 in0.0 mm 0.00 in0.0 mm 0.00 in0.0 mm
03:10 AM 49.1°F9.5°C 44.2°F6.8°C 83% 1.5 mph NW2.4 kmh NW 3.0 mph4.8 kmh 30.07 in1018.3 mb 0.00 in0.0 mm 0.00 in0.0 mm 0.00 in0.0 mm
03:05 AM 49.3°F9.6°C 44.0°F6.7°C 82% 2.0 mph NW3.2 kmh NW 4.0 mph6.4 kmh 30.08 in1018.6 mb 0.00 in0.0 mm 0.00 in0.0 mm 0.00 in0.0 mm
03:00 AM 49.6°F9.8°C 44.3°F6.8°C 82% 1.5 mph NW2.4 kmh NW 4.0 mph6.4 kmh 30.08 in1018.6 mb 0.00 in0.0 mm 0.00 in0.0 mm 0.00 in0.0 mm
02:55 AM 49.6°F9.8°C 44.3°F6.8°C 82% 1.4 mph NW2.3 kmh NW 4.0 mph6.4 kmh 30.08 in1018.6 mb 0.00 in0.0 mm 0.00 in0.0 mm 0.00 in0.0 mm
02:50 AM 49.6°F9.8°C 44.3°F6.8°C 82% 1.8 mph NW2.9 kmh NW 4.0 mph6.4 kmh 30.08 in1018.6 mb 0.00 in0.0 mm 0.00 in0.0 mm 0.00 in0.0 mm
02:45 AM 49.9°F9.9°C 44.6°F7.0°C 82% 1.6 mph NW2.6 kmh NW 3.0 mph4.8 kmh 30.08 in1018.6 mb 0.00 in0.0 mm 0.00 in0.0 mm 0.00 in0.0 mm
02:40 AM 50.0°F10.0°C 44.7°F7.1°C 82% 1.7 mph NNW2.7 kmh NNW 3.0 mph4.8 kmh 30.08 in1018.6 mb 0.00 in0.0 mm 0.00 in0.0 mm 0.00 in0.0 mm
02:35 AM 50.1°F10.1°C 44.5°F6.9°C 81% 1.8 mph NW2.9 kmh NW 6.0 mph9.7 kmh 30.08 in1018.6 mb 0.00 in0.0 mm 0.00 in0.0 mm 0.00 in0.0 mm
02:30 AM 50.5°F10.3°C 44.9°F7.2°C 81% 1.6 mph NNW2.6 kmh NNW 6.0 mph9.7 kmh 30.08 in1018.6 mb 0.00 in0.0 mm 0.00 in0.0 mm 0.00 in0.0 mm
02:25 AM 50.5°F10.3°C 44.9°F7.2°C 81% 1.6 mph N2.6 kmh N 4.0 mph6.4 kmh 30.08 in1018.6 mb 0.00 in0.0 mm 0.00 in0.0 mm 0.00 in0.0 mm
02:20 AM 50.8°F10.4°C 45.2°F7.3°C 81% 1.5 mph NNW2.4 kmh NNW 5.0 mph8.0 kmh 30.08 in1018.6 mb 0.00 in0.0 mm 0.00 in0.0 mm 0.00 in0.0 mm
02:15 AM 50.9°F10.5°C 45.3°F7.4°C 81% 1.7 mph NNW2.7 kmh NNW 5.0 mph8.0 kmh 30.08 in1018.6 mb 0.00 in0.0 mm 0.00 in0.0 mm 0.00 in0.0 mm
02:10 AM 51.1°F10.6°C 45.5°F7.5°C 81% 2.0 mph NNW3.2 kmh NNW 4.0 mph6.4 kmh 30.08 in1018.6 mb 0.00 in0.0 mm 0.00 in0.0 mm 0.00 in0.0 mm
02:05 AM 51.5°F10.8°C 45.5°F7.5°C 80% 2.0 mph NNW3.2 kmh NNW 4.0 mph6.4 kmh 30.08 in1018.6 mb 0.00 in0.0 mm 0.00 in0.0 mm 0.00 in0.0 mm
02:00 AM 51.7°F10.9°C 45.7°F7.6°C 80% 2.0 mph NNW3.2 kmh NNW 5.0 mph8.0 kmh 30.08 in1018.6 mb 0.00 in0.0 mm 0.00 in0.0 mm 0.00 in0.0 mm
01:55 AM 51.9°F11.1°C 45.9°F7.7°C 80% 2.0 mph NW3.2 kmh NW 5.0 mph8.0 kmh 30.08 in1018.6 mb 0.00 in0.0 mm 0.00 in0.0 mm 0.00 in0.0 mm
01:50 AM 52.2°F11.2°C 45.9°F7.7°C 79% 2.0 mph NNW3.2 kmh NNW 5.0 mph8.0 kmh 30.08 in1018.6 mb 0.00 in0.0 mm 0.00 in0.0 mm 0.00 in0.0 mm
01:45 AM 52.4°F11.3°C 46.1°F7.8°C 79% 2.0 mph NNW3.2 kmh NNW 9.0 mph14.5 kmh 30.08 in1018.6 mb 0.00 in0.0 mm 0.00 in0.0 mm 0.00 in0.0 mm
01:40 AM 52.5°F11.4°C 46.2°F7.9°C 79% 1.6 mph NNW2.6 kmh NNW 9.0 mph14.5 kmh 30.08 in1018.6 mb 0.00 in0.0 mm 0.00 in0.0 mm 0.00 in0.0 mm
01:35 AM 52.5°F11.4°C 46.2°F7.9°C 79% 1.2 mph NNW1.9 kmh NNW 5.0 mph8.0 kmh 30.08 in1018.6 mb 0.00 in0.0 mm 0.00 in0.0 mm 0.00 in0.0 mm
01:30 AM 52.5°F11.4°C 46.5°F8.1°C 80% 1.6 mph N2.6 kmh N 5.0 mph8.0 kmh 30.08 in1018.6 mb 0.00 in0.0 mm 0.00 in0.0 mm 0.00 in0.0 mm
01:25 AM 52.8°F11.6°C 46.8°F8.2°C 80% 2.0 mph N3.2 kmh N 6.0 mph9.7 kmh 30.07 in1018.3 mb 0.00 in0.0 mm 0.00 in0.0 mm 0.00 in0.0 mm
01:20 AM 53.1°F11.7°C 47.1°F8.4°C 80% 1.8 mph N2.9 kmh N 8.0 mph12.9 kmh 30.08 in1018.6 mb 0.00 in0.0 mm 0.00 in0.0 mm 0.00 in0.0 mm
01:15 AM 53.3°F11.8°C 47.3°F8.5°C 80% 1.7 mph N2.7 kmh N 8.0 mph12.9 kmh 30.08 in1018.6 mb 0.00 in0.0 mm 0.00 in0.0 mm 0.00 in0.0 mm
01:10 AM 53.6°F12.0°C 47.6°F8.7°C 80% 1.9 mph NNW3.1 kmh NNW 6.0 mph9.7 kmh 30.08 in1018.6 mb 0.00 in0.0 mm 0.00 in0.0 mm 0.00 in0.0 mm
01:05 AM 53.8°F12.1°C 48.1°F8.9°C 81% 2.0 mph NW3.2 kmh NW 7.0 mph11.3 kmh 30.08 in1018.6 mb 0.00 in0.0 mm 0.00 in0.0 mm 0.00 in0.0 mm
01:00 AM 54.0°F12.2°C 48.3°F9.1°C 81% 2.0 mph NW3.2 kmh NW 7.0 mph11.3 kmh 30.08 in1018.6 mb 0.00 in0.0 mm 0.00 in0.0 mm 0.00 in0.0 mm
12:55 AM 54.2°F12.3°C 48.5°F9.2°C 81% 2.0 mph NNW3.2 kmh NNW 6.0 mph9.7 kmh 30.08 in1018.6 mb 0.00 in0.0 mm 0.00 in0.0 mm 0.00 in0.0 mm
12:50 AM 54.2°F12.3°C 49.1°F9.5°C 83% 1.8 mph N2.9 kmh N 6.0 mph9.7 kmh 30.08 in1018.6 mb 0.00 in0.0 mm 0.00 in0.0 mm 0.00 in0.0 mm
12:45 AM 54.2°F12.3°C 49.5°F9.7°C 84% 1.3 mph N2.1 kmh N 6.0 mph9.7 kmh 30.07 in1018.3 mb 0.00 in0.0 mm 0.00 in0.0 mm 0.00 in0.0 mm
12:40 AM 54.0°F12.2°C 49.6°F9.8°C 85% 1.4 mph N2.3 kmh N 5.0 mph8.0 kmh 30.07 in1018.3 mb 0.00 in0.0 mm 0.00 in0.0 mm 0.00 in0.0 mm
12:35 AM 54.2°F12.3°C 49.8°F9.9°C 85% 1.9 mph N3.1 kmh N 8.0 mph12.9 kmh 30.07 in1018.3 mb 0.00 in0.0 mm 0.00 in0.0 mm 0.00 in0.0 mm
12:30 AM 54.4°F12.4°C 50.0°F10.0°C 85% 2.2 mph N3.5 kmh N 8.0 mph12.9 kmh 30.07 in1018.3 mb 0.00 in0.0 mm 0.00 in0.0 mm 0.00 in0.0 mm
12:25 AM 54.5°F12.5°C 50.4°F10.2°C 86% 2.7 mph NNW4.3 kmh NNW 10.0 mph16.1 kmh 30.08 in1018.6 mb 0.00 in0.0 mm 0.00 in0.0 mm 0.00 in0.0 mm
12:20 AM 54.5°F12.5°C 50.4°F10.2°C 86% 3.0 mph NNW4.8 kmh NNW 10.0 mph16.1 kmh 30.08 in1018.6 mb 0.00 in0.0 mm 0.00 in0.0 mm 0.00 in0.0 mm
12:15 AM 54.6°F12.6°C 50.8°F10.4°C 87% 3.0 mph NNW4.8 kmh NNW 9.0 mph14.5 kmh 30.07 in1018.3 mb 0.00 in0.0 mm 0.00 in0.0 mm 0.00 in0.0 mm
12:10 AM 54.8°F12.7°C 51.0°F10.6°C 87% 2.5 mph NNW4.0 kmh NNW 8.0 mph12.9 kmh 30.07 in1018.3 mb 0.00 in0.0 mm 0.00 in0.0 mm 0.00 in0.0 mm
12:05 AM 55.1°F12.8°C 51.6°F10.9°C 88% 2.0 mph N3.2 kmh N 8.0 mph12.9 kmh 30.08 in1018.6 mb 0.00 in0.0 mm 0.00 in0.0 mm 0.00 in0.0 mm
12:00 AM 55.3°F12.9°C 51.8°F11.0°C 88% 2.0 mph N3.2 kmh N 9.0 mph14.5 kmh 30.07 in1018.3 mb 0.00 in0.0 mm 0.00 in0.0 mm 0.00 in0.0 mm